Time;durP1;ratioP1;P1;durP2;ratioP2;P2;SDS_P1;SDS_P2;PMS_P1;PMS_P2;Temp;Humidity;BMP_temperature;BMP_pressure;BME280_temperature;BME280_humidity;BME280_pressure;Samples;Min_cycle;Max_cycle;Signal;HPM_P1;HPM_P2
2023/06/24 00:02:03;;;;;;;11.20;5.95;;;;;;;17.82;91.79;101322.00;6105315;23;20076;-96
2023/06/24 00:04:31;;;;;;;7.97;4.20;;;;;;;17.78;91.90;101325.78;6102728;23;20010;-96
2023/06/24 00:07:03;;;;;;;9.13;4.90;;;;;;;17.71;92.35;101328.00;6100705;23;20078;-96
2023/06/24 00:09:44;;;;;;;10.10;5.38;;;;;;;17.77;92.51;101331.94;6102208;23;20002;-96
2023/06/24 00:12:20;;;;;;;9.80;5.35;;;;;;;17.67;92.53;101336.16;6102123;23;20413;-96
2023/06/24 00:14:50;;;;;;;7.22;4.22;;;;;;;17.77;91.94;101326.72;6103028;23;20005;-96
2023/06/24 00:17:18;;;;;;;7.40;4.13;;;;;;;17.81;91.94;101336.03;6098437;23;20068;-95
2023/06/24 00:19:44;;;;;;;4.95;3.65;;;;;;;17.82;92.08;101329.84;6120526;23;20002;-96
2023/06/24 00:22:10;;;;;;;6.43;4.35;;;;;;;17.72;92.14;101324.44;6096029;23;20464;-95
2023/06/24 00:24:35;;;;;;;10.70;4.45;;;;;;;17.67;92.35;101331.78;6096736;23;20005;-95
2023/06/24 00:27:01;;;;;;;5.47;4.05;;;;;;;17.68;92.33;101324.75;6098053;23;20006;-94
2023/06/24 00:29:26;;;;;;;8.18;4.15;;;;;;;17.53;92.89;101324.97;6096663;23;20318;-95
2023/06/24 00:31:52;;;;;;;12.57;5.25;;;;;;;17.59;93.08;101325.47;6097163;23;20040;-94
2023/06/24 00:34:19;;;;;;;8.40;4.50;;;;;;;17.61;93.07;101323.56;6097200;23;20009;-96
2023/06/24 00:36:46;;;;;;;7.53;4.78;;;;;;;17.56;92.47;101329.13;6097220;23;20452;-94
2023/06/24 00:39:12;;;;;;;8.43;5.25;;;;;;;17.59;92.44;101325.47;6099563;23;20006;-93
2023/06/24 00:41:38;;;;;;;7.95;4.13;;;;;;;17.66;91.93;101331.91;6096021;23;20041;-95
2023/06/24 00:44:04;;;;;;;10.18;5.07;;;;;;;17.57;92.40;101324.75;6097200;23;20429;-94
2023/06/24 00:46:31;;;;;;;10.90;4.85;;;;;;;17.58;92.46;101329.00;6097947;23;20006;-93
2023/06/24 00:48:57;;;;;;;8.57;4.50;;;;;;;17.56;92.84;101323.91;6097298;23;20440;-94
2023/06/24 00:51:29;;;;;;;4.70;4.00;;;;;;;17.62;92.48;101328.66;6097753;23;20092;-95
2023/06/24 00:53:55;;;;;;;10.88;4.72;;;;;;;17.62;91.96;101317.41;6098577;23;20388;-94
2023/06/24 00:56:25;;;;;;;8.57;4.22;;;;;;;17.58;92.56;101326.38;6096738;23;20037;-93
2023/06/24 00:58:52;;;;;;;9.75;4.85;;;;;;;17.58;92.24;101322.03;6097391;23;20033;-95
2023/06/24 01:01:18;;;;;;;9.13;5.68;;;;;;;17.54;91.96;101320.56;6096914;23;20341;-96
2023/06/24 01:03:45;;;;;;;8.07;4.25;;;;;;;17.58;91.81;101310.72;6097783;23;20006;-96
2023/06/24 01:06:11;;;;;;;8.23;4.15;;;;;;;17.65;92.10;101322.38;6096137;23;20002;-94
2023/06/24 01:08:37;;;;;;;9.90;3.63;;;;;;;17.64;92.01;101320.72;6097145;23;20499;-95
2023/06/24 01:11:03;;;;;;;8.77;5.00;;;;;;;17.53;92.22;101317.13;6096265;23;20006;-96
2023/06/24 01:13:28;;;;;;;6.28;4.50;;;;;;;17.57;92.53;101320.34;6096712;23;20013;-95
2023/06/24 01:15:54;;;;;;;7.10;4.75;;;;;;;17.59;92.66;101317.63;6097689;23;20460;-95
2023/06/24 01:18:33;;;;;;;6.95;4.75;;;;;;;17.55;93.10;101323.06;6097166;23;20010;-94
2023/06/24 01:21:09;;;;;;;8.95;4.70;;;;;;;17.60;92.84;101322.72;6097349;23;20006;-93
2023/06/24 01:23:49;;;;;;;9.35;4.65;;;;;;;17.69;92.09;101323.84;6099305;23;20029;-95
2023/06/24 01:26:17;;;;;;;8.50;4.72;;;;;;;17.65;92.17;101322.38;6097630;23;20010;-93
2023/06/24 01:29:01;;;;;;;8.23;4.72;;;;;;;17.52;93.60;101323.28;6097888;23;20006;-93
2023/06/24 01:31:33;;;;;;;7.13;4.22;;;;;;;17.58;93.93;101321.16;6099945;23;20014;-95
2023/06/24 01:34:03;;;;;;;7.68;4.22;;;;;;;17.57;93.87;101320.34;6099082;23;20306;-94
2023/06/24 01:36:33;;;;;;;7.82;5.20;;;;;;;17.64;94.10;101315.50;6100177;23;20013;-94
2023/06/24 01:39:03;;;;;;;5.95;3.83;;;;;;;17.68;94.00;101312.56;6100169;23;20413;-93
2023/06/24 01:41:34;;;;;;;5.50;3.83;;;;;;;17.73;93.24;101312.22;6101087;23;20089;-92
2023/06/24 01:44:01;;;;;;;7.18;3.35;;;;;;;17.70;93.65;101309.81;6099517;23;20337;-93
2023/06/24 01:46:29;;;;;;;8.02;4.15;;;;;;;17.71;93.61;101306.28;6098400;23;20002;-93
2023/06/24 01:48:58;;;;;;;7.45;3.78;;;;;;;17.70;94.20;101312.44;6097697;23;20083;-93
2023/06/24 01:51:26;;;;;;;6.75;3.72;;;;;;;17.60;94.84;101309.66;6097487;23;19994;-94
2023/06/24 01:53:58;;;;;;;6.82;3.50;;;;;;;17.64;94.38;101299.84;6098738;23;20010;-93
2023/06/24 01:56:26;;;;;;;11.20;5.20;;;;;;;17.65;94.61;101310.16;6123502;23;20006;-94
2023/06/24 01:58:54;;;;;;;9.15;4.32;;;;;;;17.62;95.00;101317.41;6097852;23;20002;-92
2023/06/24 02:01:22;;;;;;;12.30;5.57;;;;;;;17.72;94.49;101302.72;6100118;23;20089;-94
2023/06/24 02:03:49;;;;;;;5.07;3.78;;;;;;;17.78;94.15;101307.50;6101103;23;20456;-94
2023/06/24 02:06:17;;;;;;;7.50;3.92;;;;;;;17.69;95.17;101308.19;6098733;23;20006;-94
2023/06/24 02:08:43;;;;;;;8.90;4.53;;;;;;;17.55;96.26;101309.19;6098022;23;20068;-95
2023/06/24 02:11:10;;;;;;;7.80;3.90;;;;;;;17.61;96.72;101298.28;6098385;23;20156;-95
2023/06/24 02:13:38;;;;;;;11.65;4.65;;;;;;;17.66;95.90;101300.56;6097255;23;20003;-93
2023/06/24 02:16:06;;;;;;;7.72;4.18;;;;;;;17.64;96.25;101299.84;6097872;23;20010;-94
2023/06/24 02:18:35;;;;;;;5.63;4.60;;;;;;;17.57;97.46;101286.41;6097375;23;20086;-96
2023/06/24 02:21:03;;;;;;;8.07;3.90;;;;;;;17.59;97.33;101289.75;6095517;23;20483;-92
2023/06/24 02:23:29;;;;;;;8.88;4.88;;;;;;;17.56;97.70;101292.59;6096545;23;20009;-96
2023/06/24 02:25:56;;;;;;;7.28;3.78;;;;;;;17.52;99.40;101291.97;6097382;23;20002;-95
2023/06/24 02:28:23;;;;;;;9.38;4.57;;;;;;;17.50;100.00;101293.03;6095760;23;20006;-96
2023/06/24 02:30:49;;;;;;;11.43;4.82;;;;;;;17.51;100.00;101294.69;6096365;23;20009;-93
2023/06/24 02:33:15;;;;;;;8.82;5.10;;;;;;;17.39;100.00;101288.59;6122045;23;19998;-95
2023/06/24 02:35:41;;;;;;;7.45;5.00;;;;;;;17.41;100.00;101294.53;6096393;23;20013;-93
2023/06/24 02:38:07;;;;;;;10.85;5.35;;;;;;;17.40;100.00;101295.47;6096832;23;20009;-93
2023/06/24 02:40:33;;;;;;;8.75;5.18;;;;;;;17.42;100.00;101287.53;6097611;23;20418;-94
2023/06/24 02:42:59;;;;;;;7.07;5.20;;;;;;;17.44;100.00;101290.88;6096727;23;20036;-95
2023/06/24 02:45:25;;;;;;;10.35;5.35;;;;;;;17.43;100.00;101284.78;6096733;23;20087;-93
2023/06/24 02:47:52;;;;;;;9.93;5.22;;;;;;;17.46;100.00;101279.38;6096046;23;20010;-95
2023/06/24 02:50:18;;;;;;;7.35;5.25;;;;;;;17.41;100.00;101270.19;6095472;23;20010;-94
2023/06/24 02:52:44;;;;;;;8.20;5.28;;;;;;;17.43;100.00;101270.91;6094942;23;20371;-96
2023/06/24 02:55:10;;;;;;;11.43;5.30;;;;;;;17.41;100.00;101278.88;6095494;23;20055;-95
2023/06/24 02:57:36;;;;;;;9.98;7.57;;;;;;;17.38;100.00;101279.09;6095657;23;20090;-93
2023/06/24 03:00:05;;;;;;;11.60;6.30;;;;;;;17.42;100.00;101280.53;6096336;23;20310;-96
2023/06/24 03:02:32;;;;;;;9.38;5.75;;;;;;;17.34;100.00;101272.44;6096446;23;20003;-94
2023/06/24 03:05:02;;;;;;;10.95;6.45;;;;;;;17.38;100.00;101275.66;6095797;23;20002;-94
2023/06/24 03:07:28;;;;;;;9.65;6.28;;;;;;;17.36;100.00;101270.53;6096572;23;20089;-94
2023/06/24 03:09:53;;;;;;;10.82;6.25;;;;;;;17.37;100.00;101277.44;6095292;23;20389;-93
2023/06/24 03:12:19;;;;;;;11.13;7.15;;;;;;;17.25;100.00;101271.31;6096034;23;20451;-95
2023/06/24 03:14:44;;;;;;;10.02;5.90;;;;;;;17.26;100.00;101264.31;6096213;23;20006;-94
2023/06/24 03:17:11;;;;;;;13.10;7.20;;;;;;;17.30;100.00;101269.22;6096554;23;20306;-94
2023/06/24 03:19:36;;;;;;;13.38;5.70;;;;;;;17.35;100.00;101268.88;6096400;23;20488;-94
2023/06/24 03:22:03;;;;;;;5.18;4.43;;;;;;;17.38;100.00;101273.88;6096127;23;20084;-95
2023/06/24 03:24:29;;;;;;;5.85;5.30;;;;;;;17.41;100.00;101268.44;6097128;23;20034;-95
2023/06/24 03:26:56;;;;;;;7.72;4.63;;;;;;;17.44;100.00;101263.00;6096145;23;20017;-95
2023/06/24 03:29:25;;;;;;;8.30;5.97;;;;;;;17.39;100.00;101262.50;6096408;23;20010;-96
2023/06/24 03:31:51;;;;;;;9.02;5.47;;;;;;;17.36;100.00;101260.09;6096346;23;20014;-95
2023/06/24 03:34:16;;;;;;;10.70;6.15;;;;;;;17.33;100.00;101265.53;6096214;23;20467;-95
2023/06/24 03:36:42;;;;;;;12.57;6.97;;;;;;;17.36;100.00;101272.31;6095837;23;20460;-96
2023/06/24 03:39:08;;;;;;;10.25;5.43;;;;;;;17.36;100.00;101265.31;6095299;23;20429;-96
2023/06/24 03:41:33;;;;;;;11.63;5.90;;;;;;;17.29;100.00;101266.72;6095839;23;20013;-96
2023/06/24 03:43:59;;;;;;;11.02;6.00;;;;;;;17.36;100.00;101269.69;6095815;23;20067;-95
2023/06/24 03:46:25;;;;;;;7.22;5.00;;;;;;;17.46;100.00;101257.63;6095737;23;20006;-96
2023/06/24 03:48:51;;;;;;;9.95;5.43;;;;;;;17.54;100.00;101263.97;6096026;23;20334;-96
2023/06/24 03:51:16;;;;;;;10.60;5.60;;;;;;;17.43;100.00;101260.47;6095822;23;20075;-95
2023/06/24 03:53:42;;;;;;;8.77;5.43;;;;;;;17.49;100.00;101262.66;6095628;23;20097;-95
2023/06/24 03:56:07;;;;;;;7.43;5.28;;;;;;;17.49;100.00;101268.69;6095461;23;20088;-95
2023/06/24 03:58:32;;;;;;;9.93;5.03;;;;;;;17.60;100.00;101272.28;6095513;23;20013;-95
2023/06/24 04:01:00;;;;;;;10.40;5.28;;;;;;;17.52;100.00;101273.69;6095585;23;20037;-95
2023/06/24 04:03:25;;;;;;;11.82;6.07;;;;;;;17.50;100.00;101272.13;6095999;23;19998;-96
2023/06/24 04:05:54;;;;;;;12.77;5.40;;;;;;;17.58;100.00;101274.19;6095601;23;20013;-95
2023/06/24 04:08:19;;;;;;;8.68;5.18;;;;;;;17.59;100.00;101275.88;6095551;23;20013;-96
2023/06/24 04:10:47;;;;;;;9.07;4.40;;;;;;;17.64;100.00;101284.19;6095876;23;20104;-95
2023/06/24 04:13:13;;;;;;;6.07;4.53;;;;;;;17.62;100.00;101281.69;6096383;23;20010;-96
2023/06/24 04:15:38;;;;;;;9.85;4.97;;;;;;;17.60;100.00;101280.13;6096023;23;20002;-96
2023/06/24 04:18:04;;;;;;;5.70;5.03;;;;;;;17.63;100.00;101279.91;6095268;23;20034;-95
2023/06/24 04:20:34;;;;;;;9.73;4.75;;;;;;;17.62;100.00;101280.84;6095837;23;20040;-96
2023/06/24 04:23:00;;;;;;;7.28;4.70;;;;;;;17.61;100.00;101287.03;6095736;23;20033;-96
2023/06/24 04:25:25;;;;;;;8.07;5.07;;;;;;;17.64;100.00;101281.56;6095641;23;20483;-96
2023/06/24 04:27:51;;;;;;;5.95;4.90;;;;;;;17.74;100.00;101282.56;6095522;23;20002;-96
2023/06/24 04:30:16;;;;;;;7.70;4.43;;;;;;;17.80;100.00;101287.38;6095116;23;20014;-94
2023/06/24 04:32:42;;;;;;;6.55;4.47;;;;;;;17.81;100.00;101281.19;6095502;23;20140;-96
2023/06/24 04:35:08;;;;;;;10.30;5.50;;;;;;;17.80;100.00;101289.97;6095454;23;20451;-94
2023/06/24 04:37:33;;;;;;;9.35;4.95;;;;;;;17.82;100.00;101288.06;6095323;23;20010;-95
2023/06/24 04:39:59;;;;;;;12.02;6.10;;;;;;;17.75;100.00;101286.81;6094768;23;20012;-96
2023/06/24 04:42:24;;;;;;;7.78;4.72;;;;;;;17.80;100.00;101276.91;6095074;23;20021;-96
2023/06/24 04:44:51;;;;;;;9.15;5.93;;;;;;;17.76;100.00;101267.59;6095953;23;20002;-95
2023/06/24 04:47:19;;;;;;;13.32;6.28;;;;;;;17.62;100.00;101267.81;6095535;23;20009;-96
2023/06/24 04:49:45;;;;;;;10.10;6.63;;;;;;;17.56;100.00;101269.09;6095247;23;20002;-95
2023/06/24 04:52:11;;;;;;;11.32;5.63;;;;;;;17.70;100.00;101279.34;6095268;23;20006;-93
2023/06/24 04:54:37;;;;;;;11.10;5.65;;;;;;;17.85;100.00;101292.22;6095016;23;20455;-95
2023/06/24 04:57:05;;;;;;;12.18;6.55;;;;;;;17.73;100.00;101286.94;6119460;23;20029;-94
2023/06/24 04:59:31;;;;;;;8.57;7.07;;;;;;;17.84;100.00;101287.97;6095403;23;20009;-94
2023/06/24 05:01:56;;;;;;;10.88;6.55;;;;;;;17.79;100.00;101283.03;6094969;23;20055;-95
2023/06/24 05:04:22;;;;;;;8.18;5.65;;;;;;;17.91;100.00;101291.78;6094937;23;20034;-95
2023/06/24 05:06:47;;;;;;;12.02;6.25;;;;;;;18.00;100.00;101285.03;6095296;23;20429;-93
2023/06/24 05:09:14;;;;;;;9.05;6.63;;;;;;;18.01;100.00;101287.53;6094791;23;20029;-95
2023/06/24 05:11:41;;;;;;;12.25;6.43;;;;;;;17.98;100.00;101298.22;6094771;23;20093;-96
2023/06/24 05:14:07;;;;;;;11.30;6.78;;;;;;;17.94;100.00;101281.91;6095761;23;20037;-95
2023/06/24 05:16:33;;;;;;;10.70;6.25;;;;;;;17.99;100.00;101286.81;6095006;23;20033;-94
2023/06/24 05:18:58;;;;;;;9.68;5.18;;;;;;;18.14;100.00;101293.50;6095215;23;20014;-94
2023/06/24 05:21:24;;;;;;;9.57;6.07;;;;;;;18.18;100.00;101288.84;6094923;23;20072;-94
2023/06/24 05:23:49;;;;;;;11.98;5.40;;;;;;;18.35;100.00;101291.00;6095101;23;20002;-95
2023/06/24 05:26:15;;;;;;;12.05;6.10;;;;;;;18.31;100.00;101293.97;6094975;23;20404;-93
2023/06/24 05:28:40;;;;;;;13.45;6.38;;;;;;;18.30;100.00;101292.31;6095046;23;20016;-93
2023/06/24 05:31:06;;;;;;;9.25;6.10;;;;;;;18.30;100.00;101295.75;6095885;23;20010;-93
2023/06/24 05:33:31;;;;;;;9.10;6.07;;;;;;;18.24;100.00;101292.78;6095777;23;20006;-95
2023/06/24 05:35:57;;;;;;;8.82;5.88;;;;;;;18.31;100.00;101300.06;6096014;23;20006;-95
2023/06/24 05:38:22;;;;;;;14.80;6.05;;;;;;;18.39;100.00;101286.41;6095448;23;20012;-95
2023/06/24 05:40:48;;;;;;;10.82;5.28;;;;;;;18.55;100.00;101292.09;6096295;23;20089;-95
2023/06/24 05:43:13;;;;;;;8.77;5.30;;;;;;;18.59;100.00;101292.69;6096435;23;20085;-95
2023/06/24 05:45:39;;;;;;;9.98;6.05;;;;;;;18.63;100.00;101293.28;6095570;23;20006;-94
2023/06/24 05:48:05;;;;;;;9.07;5.28;;;;;;;18.71;100.00;101286.50;6096354;23;20335;-94
2023/06/24 05:50:30;;;;;;;10.52;6.13;;;;;;;18.64;100.00;101289.72;6095295;23;20060;-95
2023/06/24 05:52:55;;;;;;;8.50;5.95;;;;;;;18.71;100.00;101289.13;6096270;23;20089;-96
2023/06/24 05:55:21;;;;;;;18.15;7.53;;;;;;;18.91;100.00;101286.75;6097269;23;20006;-95
2023/06/24 05:57:47;;;;;;;8.90;5.72;;;;;;;19.26;100.00;101283.91;6100996;23;20439;-96
2023/06/24 06:00:12;;;;;;;18.23;6.28;;;;;;;19.38;98.49;101285.53;6097457;23;20483;-93
2023/06/24 06:02:38;;;;;;;14.27;6.13;;;;;;;19.28;99.24;101287.25;6097865;23;19998;-96
2023/06/24 06:05:04;;;;;;;10.38;5.80;;;;;;;19.41;97.45;101290.56;6097767;23;20006;-94
2023/06/24 06:07:30;;;;;;;9.40;5.95;;;;;;;19.92;94.80;101294.25;6098457;23;20037;-96
2023/06/24 06:09:55;;;;;;;8.82;6.00;;;;;;;20.13;91.55;101293.44;6098160;23;20064;-96
2023/06/24 06:12:21;;;;;;;9.00;5.28;;;;;;;21.29;86.42;101293.84;6096329;23;20010;-96
2023/06/24 06:14:47;;;;;;;9.15;4.40;;;;;;;23.97;69.01;101298.38;6094930;23;20014;-94
2023/06/24 06:17:14;;;;;;;8.48;4.35;;;;;;;22.11;74.41;101308.31;6095493;23;20438;-95
2023/06/24 06:19:41;;;;;;;9.68;5.28;;;;;;;20.51;84.39;101306.72;6121182;23;20002;-95
2023/06/24 06:22:07;;;;;;;8.07;4.53;;;;;;;20.45;86.45;101309.88;6095108;23;20056;-93
2023/06/24 06:24:32;;;;;;;8.88;4.95;;;;;;;20.21;88.22;101315.41;6095326;23;20010;-96
2023/06/24 06:26:58;;;;;;;8.05;5.05;;;;;;;22.42;77.35;101313.38;6095791;23;20007;-95
2023/06/24 06:29:24;;;;;;;9.95;4.53;;;;;;;23.64;68.53;101319.19;6120074;23;20521;-96
2023/06/24 06:31:49;;;;;;;8.98;4.38;;;;;;;22.27;73.55;101322.72;6095374;23;20033;-94
2023/06/24 06:34:15;;;;;;;8.27;4.85;;;;;;;21.32;78.86;101317.19;6094986;23;20002;-95
2023/06/24 06:36:41;;;;;;;5.80;3.92;;;;;;;21.43;78.80;101312.81;6094466;23;20006;-95
2023/06/24 06:39:06;;;;;;;6.88;4.70;;;;;;;21.76;75.80;101319.47;6095594;23;20616;-96
2023/06/24 06:41:31;;;;;;;7.55;3.90;;;;;;;21.69;76.87;101318.34;6096345;23;20014;-94
2023/06/24 06:43:59;;;;;;;8.60;4.78;;;;;;;21.25;79.38;101316.09;6095805;23;20097;-95
2023/06/24 06:46:24;;;;;;;7.50;4.60;;;;;;;21.27;78.74;101319.41;6095437;23;20429;-94
2023/06/24 06:48:50;;;;;;;6.45;4.35;;;;;;;21.50;78.47;101316.53;6095696;23;20077;-95
2023/06/24 06:51:18;;;;;;;5.47;4.40;;;;;;;21.32;79.42;101319.81;6094569;23;20108;-95
2023/06/24 06:53:43;;;;;;;6.43;4.50;;;;;;;21.43;78.55;101328.56;6094246;23;20012;-95
2023/06/24 06:56:16;;;;;;;8.70;3.88;;;;;;;21.35;79.34;101332.69;6094248;23;20013;-95
2023/06/24 06:58:41;;;;;;;5.18;4.25;;;;;;;21.43;79.35;101332.03;6094088;23;20088;-95
2023/06/24 07:01:06;;;;;;;8.40;4.30;;;;;;;21.26;80.35;101327.41;6096032;23;20527;-94
2023/06/24 07:03:32;;;;;;;7.07;4.63;;;;;;;21.19;81.73;101340.28;6095826;23;20059;-96
2023/06/24 07:05:57;;;;;;;5.18;4.20;;;;;;;21.24;80.51;101338.06;6096105;23;20512;-95
2023/06/24 07:08:23;;;;;;;6.13;3.92;;;;;;;21.42;80.39;101326.91;6102365;23;20328;-92
2023/06/24 07:10:49;;;;;;;9.70;4.28;;;;;;;21.56;79.17;101329.16;6127773;22;20076;-96
2023/06/24 07:13:15;;;;;;;8.32;4.30;;;;;;;21.52;78.46;101333.00;6130370;23;20013;-93
2023/06/24 07:15:47;;;;;;;5.80;3.83;;;;;;;21.91;78.19;101330.38;6135811;23;20006;-96
2023/06/24 07:18:13;;;;;;;6.25;3.40;;;;;;;22.15;75.31;101340.44;6133847;23;20006;-94
2023/06/24 07:20:45;;;;;;;8.32;4.50;;;;;;;22.34;73.56;101332.53;6135457;23;20331;-96
2023/06/24 07:23:11;;;;;;;10.65;4.28;;;;;;;22.88;71.89;101331.91;6158376;23;20080;-96
2023/06/24 07:25:37;;;;;;;6.43;3.78;;;;;;;23.50;69.08;101328.44;6156422;23;20028;-96
2023/06/24 07:33:20;;;;;;;5.38;3.42;;;;;;;23.20;68.74;101347.25;6178114;23;20073;-96
2023/06/24 07:35:46;;;;;;;9.60;3.90;;;;;;;23.29;68.97;101363.00;6240190;22;21370;-95
2023/06/24 07:38:12;;;;;;;6.90;3.67;;;;;;;23.26;69.42;101351.91;6293798;22;20424;-95
2023/06/24 07:40:40;;;;;;;6.07;3.45;;;;;;;23.26;68.19;101351.91;6287178;22;20396;-96
2023/06/24 07:43:05;;;;;;;6.57;3.25;;;;;;;23.43;69.32;101360.81;6288617;22;20088;-94
2023/06/24 07:45:45;;;;;;;8.82;3.30;;;;;;;23.41;68.60;101354.88;6181492;22;20383;-96
2023/06/24 07:48:19;;;;;;;6.22;3.25;;;;;;;23.27;69.18;101348.31;6286745;22;20459;-95
2023/06/24 07:50:52;;;;;;;6.55;4.13;;;;;;;23.13;69.80;101348.81;6290066;22;20029;-96
2023/06/24 07:53:17;;;;;;;8.95;3.80;;;;;;;22.73;70.38;101347.34;6303173;22;20084;-93
2023/06/24 07:55:49;;;;;;;6.68;3.78;;;;;;;22.95;70.71;101344.31;6185690;23;20040;-96
2023/06/24 08:01:06;;;;;;;6.18;3.42;;;;;;;23.20;68.99;101347.25;6156030;23;20020;-96
2023/06/24 08:03:42;;;;;;;7.13;3.80;;;;;;;23.43;68.14;101345.81;6301302;22;19997;-96
2023/06/24 08:06:07;;;;;;;6.20;3.50;;;;;;;23.44;67.50;101350.13;6195180;22;20010;-95
2023/06/24 08:11:04;;;;;;;5.97;2.97;;;;;;;23.74;66.83;101340.22;6131921;23;20359;-95
2023/06/24 08:13:33;;;;;;;6.95;2.90;;;;;;;23.74;67.14;101350.75;6238646;23;20045;-96
2023/06/24 08:15:58;;;;;;;5.15;3.17;;;;;;;23.84;67.05;101353.31;6244456;22;20051;-96
2023/06/24 08:21:01;;;;;;;6.93;3.30;;;;;;;23.98;66.05;101354.59;6186886;23;20021;-96
2023/06/24 08:23:26;;;;;;;5.35;3.28;;;;;;;23.81;66.21;101351.00;6288939;22;20062;-96
2023/06/24 08:25:52;;;;;;;7.60;2.80;;;;;;;24.17;65.71;101348.28;6289948;22;20009;-96
2023/06/24 08:28:17;;;;;;;5.55;2.95;;;;;;;24.07;65.86;101354.50;6288169;22;20005;-96
2023/06/24 08:30:43;;;;;;;5.60;3.10;;;;;;;23.66;67.21;101348.03;6285056;22;20388;-96
2023/06/24 08:33:08;;;;;;;5.00;3.25;;;;;;;23.50;67.73;101349.53;6285268;22;20080;-96
2023/06/24 08:35:34;;;;;;;5.10;2.95;;;;;;;23.44;68.49;101349.31;6285355;22;20010;-96
2023/06/24 08:37:59;;;;;;;5.05;3.00;;;;;;;23.55;67.32;101340.34;6286264;22;20005;-95
2023/06/24 08:40:24;;;;;;;5.13;2.90;;;;;;;23.58;67.62;101345.31;6285420;22;20085;-96
2023/06/24 08:42:50;;;;;;;8.40;2.95;;;;;;;23.49;68.19;101341.78;6285506;22;20001;-95
2023/06/24 08:45:16;;;;;;;7.00;3.00;;;;;;;23.69;67.33;101342.44;6285957;22;20005;-95
2023/06/24 08:47:42;;;;;;;9.02;3.10;;;;;;;23.95;66.86;101333.78;6287023;22;19998;-95
2023/06/24 08:50:11;;;;;;;7.18;3.15;;;;;;;24.22;64.44;101333.66;6296394;22;20013;-96
2023/06/24 08:52:41;;;;;;;8.75;3.40;;;;;;;24.34;64.31;101337.69;6292506;22;20424;-96
2023/06/24 08:55:13;;;;;;;5.15;2.65;;;;;;;24.22;64.37;101335.47;6290031;22;20008;-96
2023/06/24 08:57:38;;;;;;;;;;;;;;;23.93;65.04;101334.75;6292908;22;20032;-95
2023/06/24 09:00:08;;;;;;;6.25;3.28;;;;;;;24.18;64.94;101337.56;6291515;22;20307;-96
2023/06/24 09:02:37;;;;;;;8.60;3.40;;;;;;;24.23;64.71;101335.28;6267994;22;20009;-96
2023/06/24 09:05:06;;;;;;;5.63;2.83;;;;;;;23.98;65.59;101330.84;6304368;22;20005;-96
2023/06/24 09:07:31;;;;;;;5.97;2.75;;;;;;;23.54;66.63;101328.97;6291413;22;20001;-94
2023/06/24 09:09:57;;;;;;;5.03;3.17;;;;;;;23.98;65.37;101328.22;6292863;22;20001;-96
2023/06/24 09:12:27;;;;;;;5.13;2.85;;;;;;;24.25;65.01;101329.88;6294071;22;19997;-96
2023/06/24 09:14:57;;;;;;;5.57;3.70;;;;;;;24.24;64.61;101326.41;6303012;22;20005;-96
2023/06/24 09:17:22;;;;;;;5.40;2.70;;;;;;;24.25;64.53;101321.94;6293465;22;20043;-96
2023/06/24 09:19:49;;;;;;;4.25;2.50;;;;;;;24.18;65.12;101328.84;6293840;22;20013;-96
2023/06/24 09:22:19;;;;;;;7.85;2.75;;;;;;;24.06;64.60;101323.81;6293814;22;20006;-96
2023/06/24 09:24:46;;;;;;;6.63;2.60;;;;;;;23.92;64.68;101327.00;6296640;22;20056;-96
2023/06/24 09:27:14;;;;;;;4.57;2.90;;;;;;;24.09;65.19;101325.31;6297196;22;20011;-96
2023/06/24 09:29:41;;;;;;;4.72;2.83;;;;;;;24.10;64.28;101326.97;6193339;22;20009;-96
2023/06/24 09:32:08;;;;;;;4.88;2.80;;;;;;;24.23;64.58;101322.09;6198632;22;20009;-96
2023/06/24 09:34:35;;;;;;;6.28;2.55;;;;;;;24.35;63.79;101323.50;6291011;22;20001;-96
2023/06/24 09:37:00;;;;;;;7.65;3.22;;;;;;;24.24;63.49;101326.41;6291857;22;20016;-96
2023/06/24 09:39:30;;;;;;;5.30;2.97;;;;;;;23.89;64.99;101322.03;6294313;22;20033;-96
2023/06/24 09:41:57;;;;;;;4.07;2.05;;;;;;;24.18;63.60;101319.09;6290987;22;20055;-96
2023/06/24 09:44:23;;;;;;;5.03;2.30;;;;;;;24.57;63.57;101318.69;6292991;22;20084;-96
2023/06/24 09:46:48;;;;;;;7.03;2.58;;;;;;;24.76;62.25;101318.44;6289737;22;20036;-96
2023/06/24 09:49:14;;;;;;;5.93;2.75;;;;;;;25.45;60.50;101315.63;6296938;22;20362;-96
2023/06/24 09:51:45;;;;;;;4.10;2.70;;;;;;;25.72;58.97;101316.28;6292484;22;20317;-96
2023/06/24 09:54:11;;;;;;;;;;;;;;;25.74;59.58;101319.59;6294503;22;20367;-96
2023/06/24 09:56:42;;;;;;;5.13;2.75;;;;;;;25.07;60.74;101315.22;6289347;22;19940;-94
2023/06/24 09:59:08;;;;;;;5.72;2.58;;;;;;;25.37;59.60;101310.34;6291143;22;20012;-96
2023/06/24 10:01:38;;;;;;;6.68;3.10;;;;;;;25.43;59.43;101314.97;6296160;22;20013;-96
2023/06/24 10:04:05;;;;;;;3.03;2.08;;;;;;;25.60;59.02;101308.72;6292942;22;20008;-96
2023/06/24 10:06:34;;;;;;;5.43;2.80;;;;;;;25.45;59.32;101305.06;6297849;22;20001;-96
2023/06/24 10:09:01;;;;;;;8.77;2.72;;;;;;;25.67;59.21;101294.81;6293485;22;20013;-96
2023/06/24 10:11:26;;;;;;;5.40;2.70;;;;;;;25.85;58.49;101284.91;6302151;22;19997;-96
2023/06/24 10:13:52;;;;;;;4.15;2.50;;;;;;;25.90;58.55;101284.41;6302885;22;20016;-96
2023/06/24 10:16:19;;;;;;;3.83;1.90;;;;;;;26.14;58.02;101291.47;6298424;22;20009;-96
2023/06/24 10:18:46;;;;;;;3.20;2.40;;;;;;;26.16;57.38;101292.13;6295242;22;20320;-94
2023/06/24 10:21:12;;;;;;;5.75;2.03;;;;;;;26.60;56.82;101286.38;6306004;22;20052;-96
2023/06/24 10:23:52;;;;;;;5.88;2.28;;;;;;;27.07;54.95;101280.97;6292359;22;20005;-96
2023/06/24 10:26:29;;;;;;;4.50;2.17;;;;;;;26.94;54.83;101279.91;6290182;22;20055;-96
2023/06/24 10:29:06;;;;;;;3.50;2.03;;;;;;;26.87;55.41;101280.63;6302236;22;20009;-96
2023/06/24 10:31:44;;;;;;;5.88;3.33;;;;;;;26.54;55.83;101285.25;6297321;22;20012;-96
2023/06/24 10:34:19;;;;;;;4.63;2.70;;;;;;;26.55;56.26;101276.28;6300446;22;20005;-96
2023/06/24 10:36:54;;;;;;;4.40;2.58;;;;;;;26.50;57.14;101277.78;6301037;22;20009;-96
2023/06/24 10:39:56;;;;;;;3.35;2.70;;;;;;;27.51;55.31;101277.69;6303849;22;20009;-96
2023/06/24 10:42:43;;;;;;;7.03;2.17;;;;;;;28.52;52.05;101270.19;6308819;22;20005;-96
2023/06/24 10:45:09;;;;;;;5.47;2.03;;;;;;;29.28;48.62;101267.09;6304692;22;20100;-96
2023/06/24 10:47:36;;;;;;;3.55;1.90;;;;;;;29.98;47.67;101265.38;6307436;22;20009;-96
2023/06/24 10:50:02;;;;;;;4.00;2.10;;;;;;;29.86;49.66;101262.44;6309585;22;20012;-96
2023/06/24 10:52:29;;;;;;;5.60;2.75;;;;;;;29.12;49.55;101259.41;6307984;22;20016;-96
2023/06/24 10:54:57;;;;;;;2.60;1.42;;;;;;;28.66;49.72;101254.41;6309201;22;20091;-96
2023/06/24 10:57:30;;;;;;;2.78;1.60;;;;;;;28.32;50.66;101258.47;6308314;22;20005;-96
2023/06/24 10:59:57;;;;;;;3.45;2.05;;;;;;;28.41;50.03;101256.50;6196620;22;20025;-96
2023/06/24 11:02:26;;;;;;;4.05;1.77;;;;;;;28.35;49.12;101255.44;6308996;22;20009;-96
2023/06/24 11:05:02;;;;;;;3.80;1.90;;;;;;;28.24;50.43;101261.19;6309307;22;20005;-96
2023/06/24 11:07:37;;;;;;;3.53;1.50;;;;;;;27.89;50.99;101258.28;6208089;22;20013;-96
2023/06/24 11:10:08;;;;;;;4.85;1.70;;;;;;;27.98;51.32;101257.19;6256746;22;20005;-96
2023/06/24 11:12:41;;;;;;;2.95;1.48;;;;;;;28.02;50.76;101247.88;6208814;22;20001;-96
2023/06/24 11:18:41;;;;;;;3.08;1.65;;;;;;;27.60;51.92;101249.25;6207509;23;20016;-96
2023/06/24 11:21:12;;;;;;;4.80;1.60;;;;;;;29.10;48.40;101242.81;6213162;22;20021;-96
2023/06/24 11:23:43;;;;;;;4.97;1.70;;;;;;;29.27;46.43;101222.94;6311576;22;20014;-96
2023/06/24 11:26:15;;;;;;;3.55;1.83;;;;;;;28.63;47.81;101233.50;6304872;22;19985;-96
2023/06/24 11:31:53;;;;;;;3.35;1.80;;;;;;;27.88;50.30;101225.63;6149810;22;20032;-96
2023/06/24 11:34:31;;;;;;;4.60;1.65;;;;;;;27.51;50.72;101224.66;6225551;23;20010;-96
2023/06/24 11:37:14;;;;;;;4.32;1.90;;;;;;;28.44;49.65;101221.66;6249532;23;19990;-96
2023/06/24 11:39:40;;;;;;;4.75;1.88;;;;;;;28.45;48.76;101216.16;6244975;22;20007;-96
2023/06/24 11:42:09;;;;;;;3.97;1.65;;;;;;;28.85;46.98;101224.56;6220462;22;20018;-95
2023/06/24 11:44:44;;;;;;;3.17;1.20;;;;;;;28.51;46.68;101214.63;6218897;23;20269;-95